Time;durP1;ratioP1;P1;durP2;ratioP2;P2;SDS_P1;SDS_P2;PMS_P1;PMS_P2;Temp;Humidity;BMP_temperature;BMP_pressure;BME280_temperature;BME280_humidity;BME280_pressure;Samples;Min_cycle;Max_cycle;Signal;HPM_P1;HPM_P2
2023/05/12 00:01:42;;;;;;;0.47;0.47;;;;;;;12.52;100.00;95508.13;5071683;28;20517;-63
2023/05/12 00:04:10;;;;;;;0.77;0.77;;;;;;;12.77;100.00;95493.06;5071575;28;20506;-64
2023/05/12 00:06:38;;;;;;;0.40;0.40;;;;;;;12.90;100.00;95503.06;5071521;28;20953;-64
2023/05/12 00:09:08;;;;;;;1.20;1.10;;;;;;;13.10;100.00;95505.59;5070634;28;20519;-65
2023/05/12 00:11:37;;;;;;;0.60;0.40;;;;;;;13.46;100.00;95500.72;5070983;28;20477;-64
2023/05/12 00:14:06;;;;;;;1.17;0.83;;;;;;;13.53;100.00;95496.66;5070714;28;20449;-64
2023/05/12 00:16:34;;;;;;;0.93;0.60;;;;;;;13.10;100.00;95502.94;5070631;28;20437;-64
2023/05/12 00:19:04;;;;;;;0.50;0.40;;;;;;;12.85;100.00;95505.78;5070113;28;20462;-65
2023/05/12 00:21:33;;;;;;;0.80;0.80;;;;;;;13.30;100.00;95505.41;5071084;28;20438;-65
2023/05/12 00:24:01;;;;;;;0.60;0.60;;;;;;;13.49;100.00;95506.25;5071554;28;20470;-64
2023/05/12 00:26:29;;;;;;;0.67;0.53;;;;;;;13.25;100.00;95500.13;5071520;28;20469;-64
2023/05/12 00:28:58;;;;;;;1.30;1.20;;;;;;;13.48;100.00;95502.03;5069967;28;20609;-64
2023/05/12 00:31:26;;;;;;;0.40;0.37;;;;;;;13.69;100.00;95505.22;5071749;28;20473;-64
2023/05/12 00:33:54;;;;;;;0.53;0.53;;;;;;;13.14;100.00;95461.38;5070748;28;20434;-64
2023/05/12 00:36:25;;;;;;;0.70;0.70;;;;;;;13.09;100.00;95514.63;5071832;28;20434;-64
2023/05/12 00:38:53;;;;;;;0.93;0.83;;;;;;;13.08;100.00;95495.19;5070358;28;20469;-64
2023/05/12 00:41:21;;;;;;;0.50;0.40;;;;;;;13.03;100.00;95486.47;5071086;28;20553;-64
2023/05/12 00:43:50;;;;;;;0.43;0.40;;;;;;;12.84;100.00;95504.97;5070006;28;20564;-64
2023/05/12 00:46:19;;;;;;;1.13;1.03;;;;;;;13.02;100.00;95503.50;5070395;28;20525;-64
2023/05/12 00:48:47;;;;;;;1.37;1.27;;;;;;;13.18;100.00;95489.03;5070570;28;20433;-65
2023/05/12 00:51:16;;;;;;;1.23;0.40;;;;;;;13.21;100.00;95510.53;5070398;28;20550;-64
2023/05/12 00:53:48;;;;;;;0.53;0.40;;;;;;;13.17;100.00;95503.38;5071449;28;20595;-64
2023/05/12 00:56:18;;;;;;;0.60;0.50;;;;;;;13.05;100.00;95509.06;5066340;28;20442;-66
2023/05/12 00:58:47;;;;;;;0.50;0.43;;;;;;;13.23;100.00;95512.91;5070495;28;21042;-65
2023/05/12 01:01:15;;;;;;;0.47;0.47;;;;;;;13.33;100.00;95508.28;5056793;28;20537;-65
2023/05/12 01:03:44;;;;;;;1.27;1.23;;;;;;;13.38;100.00;95502.13;5070862;28;20438;-65
2023/05/12 01:06:16;;;;;;;1.27;0.40;;;;;;;13.24;100.00;95496.66;5070506;28;20448;-65
2023/05/12 01:08:47;;;;;;;1.53;0.80;;;;;;;13.45;100.00;95513.22;5069824;28;20480;-65
2023/05/12 01:11:16;;;;;;;0.80;0.80;;;;;;;13.21;100.00;95513.19;5070486;28;20475;-65
2023/05/12 01:13:44;;;;;;;0.40;0.40;;;;;;;13.08;100.00;95462.50;5069810;28;20445;-65
2023/05/12 01:16:17;;;;;;;0.50;0.50;;;;;;;13.43;100.00;95512.72;5071172;28;20433;-65
2023/05/12 01:18:50;;;;;;;0.40;0.40;;;;;;;13.68;100.00;95507.13;5070493;28;20565;-65
2023/05/12 01:21:19;;;;;;;0.60;0.60;;;;;;;14.01;100.00;95508.06;5045333;28;20444;-65
2023/05/12 01:23:57;;;;;;;0.80;0.80;;;;;;;14.12;100.00;95479.38;5070566;28;21019;-65
2023/05/12 01:26:28;;;;;;;0.50;0.40;;;;;;;14.32;100.00;95497.84;5074100;28;20481;-64
2023/05/12 01:28:57;;;;;;;0.93;0.40;;;;;;;14.30;100.00;95499.94;5073960;28;20977;-64
2023/05/12 01:31:44;;;;;;;18.27;1.03;;;;;;;14.25;100.00;95495.47;5074041;28;20856;-65
2023/05/12 01:34:17;;;;;;;0.60;0.60;;;;;;;14.01;100.00;95495.50;5074556;28;20437;-64
2023/05/12 01:36:45;;;;;;;0.40;0.40;;;;;;;13.96;100.00;95494.81;5073280;28;20441;-63
2023/05/12 01:39:13;;;;;;;0.50;0.50;;;;;;;13.93;100.00;95496.16;5073775;28;20504;-64
2023/05/12 01:41:43;;;;;;;0.40;0.30;;;;;;;13.95;100.00;95494.00;5072582;28;21051;-64
2023/05/12 01:44:11;;;;;;;0.50;0.50;;;;;;;13.69;100.00;95455.41;5073007;28;20442;-64
2023/05/12 01:46:40;;;;;;;0.83;0.83;;;;;;;14.06;100.00;95493.88;5073489;28;20433;-64
2023/05/12 01:49:08;;;;;;;0.97;0.97;;;;;;;14.44;100.00;95500.84;5073541;28;20437;-64
2023/05/12 01:51:36;;;;;;;0.60;0.60;;;;;;;14.37;100.00;95495.09;5073557;28;20465;-64
2023/05/12 01:54:05;;;;;;;0.40;0.30;;;;;;;14.47;100.00;95501.06;5073648;28;20817;-64
2023/05/12 01:56:33;;;;;;;0.40;0.30;;;;;;;14.35;100.00;95487.38;5073607;28;20451;-64
2023/05/12 01:59:03;;;;;;;0.40;0.30;;;;;;;14.46;100.00;95493.34;5073592;28;20601;-64
2023/05/12 02:01:31;;;;;;;0.60;0.37;;;;;;;14.37;100.00;95500.44;5073257;28;20441;-64
2023/05/12 02:03:59;;;;;;;0.50;0.43;;;;;;;14.21;100.00;95493.69;5073841;28;20869;-64
2023/05/12 02:06:28;;;;;;;0.70;0.70;;;;;;;14.03;100.00;95500.56;5074050;28;20434;-64
2023/05/12 02:08:56;;;;;;;1.10;0.60;;;;;;;13.72;100.00;95500.13;5073968;28;20437;-64
2023/05/12 02:11:24;;;;;;;0.40;0.30;;;;;;;13.91;100.00;95492.97;5073040;28;20473;-65
2023/05/12 02:13:53;;;;;;;0.57;0.57;;;;;;;14.14;100.00;95493.25;5072830;28;20536;-64
2023/05/12 02:16:23;;;;;;;0.50;0.50;;;;;;;14.10;100.00;95492.22;5073060;28;20839;-64
2023/05/12 02:18:51;;;;;;;0.53;0.50;;;;;;;14.21;100.00;95499.81;5074109;28;20469;-64
2023/05/12 02:21:19;;;;;;;1.03;1.03;;;;;;;14.23;100.00;95491.50;5072583;28;20928;-64
2023/05/12 02:23:48;;;;;;;1.10;0.63;;;;;;;14.37;100.00;95495.88;5072876;28;20444;-64
2023/05/12 02:26:18;;;;;;;0.90;0.90;;;;;;;14.59;100.00;95482.75;5073425;28;20509;-64
2023/05/12 02:28:46;;;;;;;0.77;0.60;;;;;;;14.58;100.00;95483.84;5073008;28;20460;-64
2023/05/12 02:31:14;;;;;;;0.50;0.47;;;;;;;14.63;100.00;95472.28;5073027;28;20449;-64
2023/05/12 02:33:44;;;;;;;0.40;0.40;;;;;;;14.30;100.00;95490.06;5073659;28;20442;-64
2023/05/12 02:36:12;;;;;;;0.70;0.60;;;;;;;14.13;100.00;95495.13;5071789;28;20441;-64
2023/05/12 02:38:40;;;;;;;0.50;0.50;;;;;;;14.14;100.00;95503.91;5073391;28;20434;-65
2023/05/12 02:41:09;;;;;;;0.70;0.70;;;;;;;13.67;100.00;95500.19;5073526;28;20472;-65
2023/05/12 02:43:37;;;;;;;0.40;0.40;;;;;;;13.47;100.00;95494.28;5073711;28;20440;-65
2023/05/12 02:46:05;;;;;;;0.90;0.57;;;;;;;13.25;100.00;95500.13;5073736;28;20464;-65
2023/05/12 02:48:34;;;;;;;0.97;0.97;;;;;;;13.69;100.00;95500.72;5073071;28;20430;-65
2023/05/12 02:51:04;;;;;;;0.50;0.47;;;;;;;13.46;100.00;95506.03;5073594;28;20938;-65
2023/05/12 02:53:32;;;;;;;1.10;1.00;;;;;;;13.52;100.00;95503.03;5072546;28;20480;-65
2023/05/12 02:56:01;;;;;;;0.40;0.30;;;;;;;13.27;100.00;95448.19;5071984;28;20465;-65
2023/05/12 02:58:29;;;;;;;0.60;0.60;;;;;;;13.47;100.00;95503.09;5072029;28;20438;-66
2023/05/12 03:00:57;;;;;;;0.50;0.50;;;;;;;13.71;100.00;95503.88;5071913;28;20488;-65
2023/05/12 03:03:38;;;;;;;0.40;0.30;;;;;;;13.93;100.00;95508.69;5072851;28;20452;-65
2023/05/12 03:06:08;;;;;;;0.40;0.40;;;;;;;13.76;100.00;95511.81;5072956;28;20804;-65
2023/05/12 03:08:37;;;;;;;0.87;0.60;;;;;;;13.75;100.00;95512.09;5072513;28;20870;-64
2023/05/12 03:11:05;;;;;;;0.40;0.30;;;;;;;13.90;100.00;95512.72;5069873;28;20444;-64
2023/05/12 03:13:33;;;;;;;1.07;0.60;;;;;;;14.04;100.00;95510.13;5061923;28;20948;-64
2023/05/12 03:16:01;;;;;;;0.80;0.80;;;;;;;14.13;100.00;95507.63;5070906;28;20460;-64
2023/05/12 03:18:30;;;;;;;0.60;0.60;;;;;;;14.09;100.00;95515.41;5072147;28;20444;-64
2023/05/12 03:21:00;;;;;;;0.47;0.43;;;;;;;14.28;100.00;95510.91;5071488;28;20548;-64
2023/05/12 03:23:30;;;;;;;0.43;0.37;;;;;;;14.38;100.00;95507.34;5072632;28;21029;-64
2023/05/12 03:25:58;;;;;;;0.43;0.37;;;;;;;14.37;100.00;95511.88;5071912;28;20438;-64
2023/05/12 03:28:27;;;;;;;0.50;0.50;;;;;;;14.17;100.00;95513.97;5070670;28;20473;-64
2023/05/12 03:30:55;;;;;;;2.70;0.70;;;;;;;13.60;100.00;95453.69;5071661;28;20457;-64
2023/05/12 03:33:23;;;;;;;0.97;0.83;;;;;;;13.43;100.00;95527.91;5071437;28;20442;-64
2023/05/12 03:35:52;;;;;;;1.30;1.20;;;;;;;13.55;100.00;95526.44;5070799;28;21026;-64
2023/05/12 03:38:20;;;;;;;1.27;0.83;;;;;;;13.59;100.00;95529.31;5057895;28;20525;-64
2023/05/12 03:40:52;;;;;;;0.80;0.80;;;;;;;13.93;100.00;95532.69;5044570;28;20524;-64
2023/05/12 03:43:20;;;;;;;0.40;0.30;;;;;;;14.24;100.00;95523.22;5070444;28;20449;-63
2023/05/12 03:45:48;;;;;;;0.87;0.87;;;;;;;14.28;100.00;95518.09;5070373;28;20530;-63
2023/05/12 03:48:17;;;;;;;0.40;0.30;;;;;;;14.58;100.00;95539.06;5069762;28;20541;-63
2023/05/12 03:50:45;;;;;;;1.07;1.07;;;;;;;14.71;100.00;95537.53;5071382;28;20441;-63
2023/05/12 03:53:13;;;;;;;0.40;0.33;;;;;;;14.73;100.00;95538.81;5070149;28;20857;-62
2023/05/12 03:55:42;;;;;;;0.50;0.50;;;;;;;14.34;100.00;95533.00;5069938;28;20437;-62
2023/05/12 03:58:12;;;;;;;0.90;0.90;;;;;;;13.91;100.00;95471.66;5071018;28;20529;-63
2023/05/12 04:00:40;;;;;;;0.50;0.30;;;;;;;14.01;100.00;95540.06;5071424;28;20903;-64
2023/05/12 04:03:08;;;;;;;0.60;0.60;;;;;;;14.31;100.00;95547.69;5071769;28;20465;-60
2023/05/12 04:05:38;;;;;;;2.10;0.40;;;;;;;14.53;100.00;95542.59;5071734;28;20489;-65
2023/05/12 04:08:06;;;;;;;0.60;0.57;;;;;;;14.08;100.00;95545.03;5070922;28;20449;-63
2023/05/12 04:10:38;;;;;;;0.53;0.53;;;;;;;13.98;100.00;95540.63;5071737;28;20433;-65
2023/05/12 04:13:08;;;;;;;0.50;0.40;;;;;;;13.77;100.00;95547.22;5070787;28;20433;-65
2023/05/12 04:15:37;;;;;;;1.03;0.60;;;;;;;14.02;100.00;95546.94;5071305;28;21046;-65
2023/05/12 04:18:06;;;;;;;0.40;0.40;;;;;;;14.09;100.00;95546.63;5071496;28;20529;-64
2023/05/12 04:20:34;;;;;;;1.23;0.90;;;;;;;13.72;100.00;95540.09;5070680;28;20556;-64
2023/05/12 04:23:02;;;;;;;0.80;0.80;;;;;;;13.76;100.00;95535.78;5070334;28;20561;-64
2023/05/12 04:25:31;;;;;;;1.03;0.93;;;;;;;13.71;100.00;95535.84;5070309;28;20441;-65
2023/05/12 04:27:59;;;;;;;0.50;0.50;;;;;;;13.70;100.00;95536.13;5070408;28;20884;-64
2023/05/12 04:30:27;;;;;;;1.50;1.40;;;;;;;13.49;100.00;95532.88;5070799;28;20449;-63
2023/05/12 04:32:57;;;;;;;1.63;1.53;;;;;;;13.67;100.00;95545.47;5071030;28;20522;-64
2023/05/12 04:35:25;;;;;;;1.37;0.93;;;;;;;13.80;100.00;95544.81;5071826;28;20924;-63
2023/05/12 04:37:54;;;;;;;1.23;1.03;;;;;;;13.69;100.00;95538.00;5071006;28;20444;-63
2023/05/12 04:40:22;;;;;;;1.37;0.80;;;;;;;13.71;100.00;95530.50;5070999;28;20491;-63
2023/05/12 04:42:50;;;;;;;1.80;1.73;;;;;;;13.36;100.00;95536.19;5060480;28;20942;-63
2023/05/12 04:45:19;;;;;;;45.87;1.17;;;;;;;13.41;100.00;95541.47;5068171;28;20502;-63
2023/05/12 04:47:47;;;;;;;1.33;0.80;;;;;;;13.43;100.00;95538.56;5070123;28;20469;-63
2023/05/12 04:50:17;;;;;;;0.40;0.30;;;;;;;13.87;100.00;95533.81;5070232;28;20503;-63
2023/05/12 04:52:45;;;;;;;0.40;0.40;;;;;;;14.22;100.00;95538.69;5070764;28;20528;-63
2023/05/12 04:55:14;;;;;;;0.60;0.40;;;;;;;14.39;100.00;95536.41;5070658;28;20517;-63
2023/05/12 04:57:42;;;;;;;0.50;0.43;;;;;;;14.47;100.00;95533.06;5070643;28;20522;-63
2023/05/12 05:00:12;;;;;;;0.80;0.40;;;;;;;14.26;100.00;95522.94;5069704;28;21060;-63
2023/05/12 05:02:40;;;;;;;2.20;1.23;;;;;;;14.32;100.00;95535.94;5071424;28;20761;-63
2023/05/12 05:05:09;;;;;;;0.40;0.30;;;;;;;14.42;100.00;95535.03;5070514;28;20939;-62
2023/05/12 05:07:39;;;;;;;0.73;0.73;;;;;;;14.28;100.00;95539.44;5069803;28;20483;-63
2023/05/12 05:10:08;;;;;;;0.40;0.30;;;;;;;14.24;100.00;95539.22;5070931;28;20442;-63
2023/05/12 05:12:37;;;;;;;0.60;0.60;;;;;;;14.41;100.00;95539.56;5070609;28;20503;-63
2023/05/12 05:15:06;;;;;;;0.40;0.30;;;;;;;14.58;100.00;95541.72;5070747;28;20526;-63
2023/05/12 05:17:34;;;;;;;0.50;0.50;;;;;;;14.35;100.00;95538.03;5070795;28;20480;-62
2023/05/12 05:20:03;;;;;;;0.50;0.50;;;;;;;14.24;100.00;95543.75;5070927;28;20460;-63
2023/05/12 05:22:40;;;;;;;0.83;0.83;;;;;;;14.39;100.00;95541.72;5070890;28;20807;-63
2023/05/12 05:25:09;;;;;;;0.40;0.33;;;;;;;14.33;100.00;95542.06;5068826;28;20441;-63
2023/05/12 05:27:38;;;;;;;0.83;0.60;;;;;;;14.57;100.00;95542.81;5069589;28;20476;-63
2023/05/12 05:30:08;;;;;;;0.60;0.60;;;;;;;14.55;99.92;95545.75;5070871;28;20438;-63
2023/05/12 05:32:39;;;;;;;0.53;0.53;;;;;;;14.27;97.61;95495.22;5070670;28;20429;-63
2023/05/12 05:35:07;;;;;;;0.97;0.97;;;;;;;14.61;98.25;95554.47;5070464;28;20479;-63
2023/05/12 05:37:36;;;;;;;0.40;0.40;;;;;;;14.67;96.95;95550.69;5070549;28;20954;-63
2023/05/12 05:40:08;;;;;;;0.30;0.20;;;;;;;14.61;96.44;95547.28;5069783;28;20521;-63
2023/05/12 05:42:36;;;;;;;0.87;0.87;;;;;;;14.40;93.93;95547.84;5070386;28;20438;-63
2023/05/12 05:45:06;;;;;;;0.40;0.40;;;;;;;14.22;98.28;95556.59;5070310;28;20437;-63
2023/05/12 05:47:36;;;;;;;0.40;0.30;;;;;;;14.68;94.76;95557.59;5070680;28;20784;-63
2023/05/12 05:50:05;;;;;;;0.70;0.50;;;;;;;14.42;94.17;95559.03;5070395;28;20473;-64
2023/05/12 05:52:33;;;;;;;0.90;0.90;;;;;;;14.74;95.37;95547.63;5070581;28;20442;-64
2023/05/12 05:55:01;;;;;;;0.40;0.30;;;;;;;14.94;93.56;95545.47;5070058;28;20434;-63
2023/05/12 05:57:31;;;;;;;0.50;0.50;;;;;;;14.83;92.19;95546.69;5070586;28;20469;-63
2023/05/12 05:59:59;;;;;;;0.70;0.30;;;;;;;14.85;93.29;95551.75;5070165;28;20976;-64
2023/05/12 06:02:27;;;;;;;1.00;1.00;;;;;;;14.78;91.45;95560.09;5070506;28;20477;-64
2023/05/12 06:04:56;;;;;;;1.00;1.00;;;;;;;14.90;93.52;95565.78;5069510;28;20452;-64
2023/05/12 06:07:24;;;;;;;0.40;0.40;;;;;;;14.76;92.03;95562.28;5070529;28;20429;-63
2023/05/12 06:09:53;;;;;;;0.40;0.40;;;;;;;15.08;91.37;95564.97;5069630;28;20434;-63
2023/05/12 06:12:21;;;;;;;0.83;0.40;;;;;;;15.30;89.90;95564.38;5074227;28;20488;-62
2023/05/12 06:14:51;;;;;;;0.77;0.77;;;;;;;15.37;88.63;95564.78;5048541;28;20448;-63
2023/05/12 06:17:19;;;;;;;0.40;0.30;;;;;;;15.70;87.51;95561.03;5073636;28;20469;-63
2023/05/12 06:19:49;;;;;;;1.37;1.27;;;;;;;15.28;83.29;95558.50;5074024;28;20467;-62
2023/05/12 06:22:17;;;;;;;0.50;0.50;;;;;;;14.88;85.81;95567.16;5073244;28;20516;-62
2023/05/12 06:24:45;;;;;;;0.70;0.70;;;;;;;14.77;85.86;95560.41;5073707;28;20573;-62
2023/05/12 06:27:14;;;;;;;1.10;1.00;;;;;;;15.09;87.17;95566.56;5073521;28;20509;-62
2023/05/12 06:29:42;;;;;;;0.50;0.40;;;;;;;15.41;85.32;95571.13;5073163;28;20521;-63
2023/05/12 06:32:12;;;;;;;0.60;0.40;;;;;;;15.25;86.40;95573.25;5072988;28;20477;-63
2023/05/12 06:34:40;;;;;;;0.40;0.30;;;;;;;15.24;82.86;95514.78;5073955;28;20429;-63
2023/05/12 06:37:09;;;;;;;0.43;0.40;;;;;;;15.67;83.84;95564.28;5073538;28;20532;-64
2023/05/12 06:39:37;;;;;;;0.70;0.70;;;;;;;15.60;82.76;95569.22;5073457;28;20446;-63
2023/05/12 06:42:06;;;;;;;0.90;0.60;;;;;;;15.88;81.85;95568.19;5059449;28;20491;-64
2023/05/12 06:44:34;;;;;;;0.40;0.40;;;;;;;15.64;81.34;95570.22;5073243;28;20507;-64
2023/05/12 06:47:03;;;;;;;0.40;0.30;;;;;;;15.74;80.92;95570.03;5073778;28;20808;-64
2023/05/12 06:49:35;;;;;;;0.87;0.87;;;;;;;15.83;82.47;95517.50;5073683;28;20492;-64
2023/05/12 06:52:04;;;;;;;0.40;0.30;;;;;;;16.39;78.57;95556.47;5073240;28;20451;-64
2023/05/12 06:54:33;;;;;;;0.40;0.30;;;;;;;16.39;76.44;95569.84;5073265;28;20450;-64
2023/05/12 06:57:01;;;;;;;0.40;0.30;;;;;;;16.00;78.98;95572.22;5073578;28;20792;-65
2023/05/12 06:59:29;;;;;;;0.70;0.60;;;;;;;15.01;78.93;95419.63;5073311;28;20483;-64
2023/05/12 07:01:58;;;;;;;0.40;0.30;;;;;;;15.87;79.14;95573.81;5073010;28;20505;-64
2023/05/12 07:04:26;;;;;;;0.40;0.30;;;;;;;16.14;78.51;95560.44;5072940;28;20457;-64
2023/05/12 07:06:56;;;;;;;0.40;0.30;;;;;;;16.23;77.11;95580.06;5073203;28;20814;-64
2023/05/12 07:09:25;;;;;;;0.50;0.50;;;;;;;16.40;77.33;95576.78;5071923;28;20434;-64
2023/05/12 07:11:53;;;;;;;0.40;0.37;;;;;;;16.64;77.87;95576.56;5072916;28;20871;-64
2023/05/12 07:14:22;;;;;;;0.40;0.30;;;;;;;16.86;75.52;95576.63;5072814;28;20430;-65
2023/05/12 07:16:50;;;;;;;0.50;0.40;;;;;;;16.59;74.83;95566.78;5072762;28;20434;-64
2023/05/12 07:19:18;;;;;;;1.00;0.60;;;;;;;16.26;74.60;95546.59;5072181;28;20472;-64
2023/05/12 07:21:47;;;;;;;0.40;0.40;;;;;;;16.60;75.67;95570.22;5071937;28;20556;-64
2023/05/12 07:24:17;;;;;;;0.60;0.40;;;;;;;16.41;74.88;95565.78;5072674;28;20446;-64
2023/05/12 07:26:45;;;;;;;0.40;0.30;;;;;;;16.49;73.45;95578.44;5072384;28;20485;-64
2023/05/12 07:29:13;;;;;;;0.77;0.33;;;;;;;16.75;74.21;95575.25;5072759;28;20441;-65
2023/05/12 07:31:42;;;;;;;0.50;0.50;;;;;;;16.69;74.24;95571.13;5072309;28;20446;-65
2023/05/12 07:34:10;;;;;;;0.40;0.40;;;;;;;16.55;74.00;95581.03;5072431;28;20467;-66
2023/05/12 07:36:40;;;;;;;0.40;0.30;;;;;;;17.03;73.52;95569.53;5072405;28;20446;-66
2023/05/12 07:39:08;;;;;;;0.60;0.40;;;;;;;17.31;72.45;95577.44;5071980;28;20434;-68
2023/05/12 07:41:38;;;;;;;0.40;0.40;;;;;;;17.02;71.17;95577.88;5072778;28;20838;-68
2023/05/12 07:44:06;;;;;;;0.40;0.40;;;;;;;17.19;72.84;95564.59;5047139;28;20520;-69
2023/05/12 07:46:35;;;;;;;0.40;0.30;;;;;;;17.40;70.09;95568.38;5071925;28;20529;-69
2023/05/12 07:49:03;;;;;;;0.40;0.30;;;;;;;17.37;69.21;95576.22;5072354;28;20516;-70
2023/05/12 07:51:31;;;;;;;0.40;0.30;;;;;;;17.55;68.04;95577.94;5072261;28;20473;-71
2023/05/12 07:54:00;;;;;;;0.40;0.30;;;;;;;18.17;67.73;95568.78;5072576;28;20965;-72
2023/05/12 07:56:28;;;;;;;0.40;0.30;;;;;;;18.24;68.55;95576.41;5072346;28;20478;-72
2023/05/12 07:58:58;;;;;;;1.10;1.00;;;;;;;18.13;67.10;95578.56;5072613;28;20438;-72
2023/05/12 08:01:26;;;;;;;0.40;0.30;;;;;;;18.12;65.45;95558.19;5071953;28;20441;-71
2023/05/12 08:03:55;;;;;;;0.40;0.30;;;;;;;17.32;68.21;95541.53;5072186;28;20452;-73
2023/05/12 08:06:23;;;;;;;0.50;0.40;;;;;;;17.71;66.87;95571.09;5071816;28;20469;-73
2023/05/12 08:08:54;;;;;;;0.40;0.30;;;;;;;17.88;67.30;95570.41;5071589;28;20947;-74
2023/05/12 08:11:23;;;;;;;0.80;0.50;;;;;;;17.94;65.85;95571.81;5072418;28;20441;-76
2023/05/12 08:13:51;;;;;;;0.37;0.30;;;;;;;18.24;65.49;95569.09;5071712;28;20445;-76
2023/05/12 08:16:21;;;;;;;0.30;0.20;;;;;;;18.38;66.02;95572.47;5071689;28;20954;-77
2023/05/12 08:18:49;;;;;;;0.40;0.30;;;;;;;17.60;67.30;95575.94;5072272;28;20865;-77
2023/05/12 08:21:18;;;;;;;0.97;0.90;;;;;;;17.68;68.04;95502.78;5071582;28;20441;-74
2023/05/12 08:23:46;;;;;;;0.40;0.30;;;;;;;18.39;64.54;95565.22;5071844;28;20480;-72
2023/05/12 08:26:14;;;;;;;0.40;0.40;;;;;;;18.50;64.99;95569.22;5071771;28;20548;-72
2023/05/12 08:28:42;;;;;;;0.90;0.90;;;;;;;18.09;65.38;95558.81;5071767;28;20884;-68
2023/05/12 08:31:11;;;;;;;0.40;0.30;;;;;;;18.85;62.80;95562.00;5071829;28;20477;-67
2023/05/12 08:33:41;;;;;;;0.50;0.33;;;;;;;19.16;63.62;95559.97;5070494;28;20442;-65
2023/05/12 08:36:10;;;;;;;0.50;0.40;;;;;;;19.72;61.72;95567.03;5071109;28;20540;-64
2023/05/12 08:38:38;;;;;;;0.80;0.70;;;;;;;18.36;63.88;95565.84;5059787;28;20501;-66
2023/05/12 08:41:16;;;;;;;0.50;0.40;;;;;;;18.81;67.34;95566.44;5071336;28;20887;-66
2023/05/12 08:43:46;;;;;;;0.50;0.37;;;;;;;19.60;63.39;95572.28;5071017;28;20477;-65
2023/05/12 08:46:15;;;;;;;0.40;0.30;;;;;;;19.73;61.50;95557.84;5071419;28;20437;-65
2023/05/12 08:48:46;;;;;;;0.40;0.30;;;;;;;19.69;61.27;95572.22;5064260;28;21114;-64
2023/05/12 08:51:14;;;;;;;0.47;0.47;;;;;;;19.32;64.30;95552.19;5071622;28;20456;-65
2023/05/12 08:53:43;;;;;;;0.40;0.30;;;;;;;19.60;62.19;95569.59;5071148;28;20438;-65
2023/05/12 08:56:12;;;;;;;0.70;0.70;;;;;;;18.83;63.00;95397.72;5070764;28;20477;-65
2023/05/12 08:58:46;;;;;;;0.50;0.40;;;;;;;19.31;63.70;95569.41;5071620;28;20476;-64
2023/05/12 09:01:16;;;;;;;0.80;0.60;;;;;;;19.54;63.75;95562.78;5070540;28;20449;-64
2023/05/12 09:03:46;;;;;;;0.50;0.50;;;;;;;19.74;63.68;95564.78;5071426;28;20530;-64
2023/05/12 09:06:15;;;;;;;0.60;0.30;;;;;;;20.23;60.20;95564.19;5070966;28;20466;-64
2023/05/12 09:08:44;;;;;;;0.43;0.30;;;;;;;20.58;61.22;95564.00;5071231;28;20446;-64
2023/05/12 09:11:13;;;;;;;0.50;0.50;;;;;;;20.07;61.77;95549.66;5070682;28;20446;-64
2023/05/12 09:13:50;;;;;;;0.50;0.50;;;;;;;19.39;61.89;95553.31;5070947;28;20875;-64
2023/05/12 09:16:23;;;;;;;1.93;1.07;;;;;;;19.70;62.92;95520.84;5071450;28;20445;-64
2023/05/12 09:18:54;;;;;;;0.67;0.67;;;;;;;20.00;62.56;95554.75;5071011;28;20448;-64
2023/05/12 09:21:23;;;;;;;0.40;0.30;;;;;;;20.61;60.42;95561.44;5071188;28;20533;-64
2023/05/12 09:23:56;;;;;;;0.50;0.50;;;;;;;20.90;59.35;95560.59;5070480;28;20556;-65
2023/05/12 09:26:27;;;;;;;0.40;0.20;;;;;;;20.68;57.94;95504.34;5071140;28;20484;-64
2023/05/12 09:29:05;;;;;;;0.57;0.53;;;;;;;20.55;56.55;95559.25;5070462;28;21175;-65
2023/05/12 09:31:33;;;;;;;0.47;0.47;;;;;;;20.80;58.22;95553.69;5070801;28;20445;-65
2023/05/12 09:34:08;;;;;;;0.60;0.60;;;;;;;19.89;57.81;95540.06;5070879;28;20835;-65
2023/05/12 09:36:36;;;;;;;0.40;0.40;;;;;;;19.59;59.03;95557.25;5071375;28;20447;-66
2023/05/12 09:39:06;;;;;;;0.63;0.50;;;;;;;20.38;59.88;95551.28;5071061;28;20430;-65
2023/05/12 09:41:36;;;;;;;0.53;0.53;;;;;;;20.18;60.40;95552.78;5071189;28;20445;-65
2023/05/12 09:44:05;;;;;;;0.83;0.83;;;;;;;19.68;59.76;95551.84;5071096;28;20479;-65
2023/05/12 09:46:33;;;;;;;0.50;0.40;;;;;;;19.77;59.01;95549.91;5073218;28;20445;-66
2023/05/12 09:49:03;;;;;;;0.43;0.43;;;;;;;20.20;59.37;95553.22;5075387;28;20445;-65
2023/05/12 09:51:31;;;;;;;0.50;0.47;;;;;;;19.34;59.51;95469.34;5074583;28;21020;-65
2023/05/12 09:54:00;;;;;;;0.47;0.40;;;;;;;20.17;57.87;95546.59;5074718;28;20447;-65
2023/05/12 09:56:30;;;;;;;0.40;0.30;;;;;;;20.86;58.31;95540.81;5074822;28;20492;-64
2023/05/12 09:58:58;;;;;;;1.07;0.40;;;;;;;20.19;56.56;95501.31;5074350;28;20508;-65
2023/05/12 10:01:27;;;;;;;0.60;0.60;;;;;;;20.27;58.72;95540.06;5074720;28;20455;-64
2023/05/12 10:03:57;;;;;;;0.60;0.60;;;;;;;19.35;58.93;95544.31;5074388;28;20907;-64
2023/05/12 10:06:29;;;;;;;0.53;0.53;;;;;;;19.09;58.39;95510.50;5074346;28;20480;-65
2023/05/12 10:09:05;;;;;;;0.83;0.83;;;;;;;19.38;58.66;95542.91;5074336;28;20533;-64
2023/05/12 10:11:33;;;;;;;0.50;0.40;;;;;;;19.52;59.06;95544.28;5074383;28;20437;-66
2023/05/12 10:14:02;;;;;;;0.40;0.30;;;;;;;20.32;57.91;95547.97;5074097;28;20465;-65
2023/05/12 10:16:32;;;;;;;0.90;0.90;;;;;;;20.53;55.89;95546.13;5048676;28;20438;-65
2023/05/12 10:19:01;;;;;;;0.70;0.70;;;;;;;19.80;56.42;95490.09;5073518;28;20442;-63
2023/05/12 10:21:32;;;;;;;0.40;0.30;;;;;;;21.17;54.70;95543.16;5074127;28;20433;-63
2023/05/12 10:24:03;;;;;;;0.60;0.60;;;;;;;20.59;56.08;95550.19;5073599;28;20505;-63
2023/05/12 10:26:33;;;;;;;0.40;0.40;;;;;;;20.38;56.87;95543.19;5073609;28;20548;-63
2023/05/12 10:29:02;;;;;;;0.60;0.60;;;;;;;20.29;56.32;95545.16;5073139;28;20880;-63
2023/05/12 10:31:31;;;;;;;0.40;0.30;;;;;;;21.12;54.85;95537.97;5073918;28;20441;-63
2023/05/12 10:34:00;;;;;;;0.40;0.40;;;;;;;21.02;55.47;95539.13;5073477;28;20438;-63
2023/05/12 10:36:29;;;;;;;0.40;0.40;;;;;;;20.47;54.97;95546.63;5074097;28;20494;-63
2023/05/12 10:39:05;;;;;;;0.80;0.53;;;;;;;20.13;55.23;95510.69;5073108;28;20521;-63
2023/05/12 10:41:35;;;;;;;0.50;0.40;;;;;;;20.16;54.48;95493.88;5074150;28;20520;-64
2023/05/12 10:44:03;;;;;;;0.40;0.30;;;;;;;20.04;54.37;95528.75;5073506;28;20552;-64
2023/05/12 10:46:31;;;;;;;0.70;0.40;;;;;;;20.20;55.35;95523.63;5072990;28;20473;-64
2023/05/12 10:49:02;;;;;;;0.40;0.30;;;;;;;20.90;54.43;95485.94;5073581;28;20441;-63
2023/05/12 10:51:32;;;;;;;0.40;0.33;;;;;;;21.37;54.56;95513.47;5072955;28;20456;-63
2023/05/12 10:54:04;;;;;;;0.40;0.30;;;;;;;21.86;53.94;95522.47;5074125;28;20477;-63
2023/05/12 10:56:42;;;;;;;0.53;0.47;;;;;;;21.36;52.40;95519.97;5072107;28;20982;-63
2023/05/12 10:59:16;;;;;;;0.40;0.27;;;;;;;22.08;52.24;95526.66;5072786;28;20451;-63
2023/05/12 11:02:00;;;;;;;0.40;0.30;;;;;;;22.00;50.94;95522.16;5072680;28;20437;-63
2023/05/12 11:04:42;;;;;;;0.40;0.30;;;;;;;22.43;49.91;95497.28;5072898;28;20469;-63
2023/05/12 11:07:13;;;;;;;0.30;0.30;;;;;;;22.18;51.13;95522.72;5073413;28;20449;-63
2023/05/12 11:09:46;;;;;;;0.30;0.30;;;;;;;22.09;51.59;95448.03;5072914;28;20437;-64
2023/05/12 11:12:27;;;;;;;0.40;0.30;;;;;;;22.77;50.68;95521.91;5073446;28;20444;-63
2023/05/12 11:14:56;;;;;;;0.30;0.20;;;;;;;22.81;50.31;95515.81;5073350;28;20965;-64
2023/05/12 11:17:24;;;;;;;0.50;0.40;;;;;;;22.24;49.21;95481.66;5073120;28;20942;-63
2023/05/12 11:19:53;;;;;;;0.47;0.27;;;;;;;22.25;49.77;95515.63;5074566;28;21013;-62
2023/05/12 11:22:23;;;;;;;0.37;0.30;;;;;;;21.36;50.35;95487.59;5074976;28;20450;-63
2023/05/12 11:24:53;;;;;;;0.70;0.70;;;;;;;20.88;51.35;95488.19;5073523;28;20477;-62
2023/05/12 11:27:22;;;;;;;0.40;0.30;;;;;;;21.64;50.54;95516.66;5072254;28;20473;-62
2023/05/12 11:29:59;;;;;;;0.40;0.33;;;;;;;21.00;51.35;95517.09;5072798;28;20511;-62
2023/05/12 11:32:28;;;;;;;0.40;0.40;;;;;;;20.61;52.93;95487.94;5072331;28;20465;-62
2023/05/12 11:35:08;;;;;;;0.50;0.50;;;;;;;20.59;53.30;95520.56;5072307;28;20988;-63
2023/05/12 11:37:38;;;;;;;0.60;0.50;;;;;;;20.02;54.48;95535.56;5072586;28;20530;-62
2023/05/12 11:40:18;;;;;;;0.40;0.40;;;;;;;20.37;55.00;95517.38;5072480;28;20446;-64